Nikolski, Alaska
Current Conditions -  °F | °C
As of 6:56 PM on Sunday 25 Jan 2015 (Local Time) from PADU Reporting Station
Light Rain Light Rain  
Wind Chill: 31°   Ceiling: 1700
Heat Index: 35°   Visibility: 10mi
Dew Point: 31°   Wind: 5mph
Humidity: 85%   Direction: NA
Pressure: 29.41"   Gusts: NA
Location:  52.95°N, 168.85°W
Report Text: PADU 260356Z AUTO VRB04KT 10SM -RA OVC017 02/M01 A2941 RMK AO2 RAB21SNE46 SLP963 LAST CS P0002 T00171006 FZRANO
Loading
Personal Weather Stations






























Interactive Weather Map New forecast layout! Learn more

10-Day Weather Forecast

Advertisements
Track Severe Weather on mobile